sensor_id;sensor_type;location;lat;lon;timestamp;P1;durP1;ratioP1;P2;durP2;ratioP2
62413;SDS011;48453;52.322;21.058;2022-08-19T00:01:30;15.70;;;11.90;;
62413;SDS011;48453;52.322;21.058;2022-08-19T00:03:59;13.40;;;11.20;;
62413;SDS011;48453;52.322;21.058;2022-08-19T00:06:24;34.30;;;26.30;;
62413;SDS011;48453;52.322;21.058;2022-08-19T00:08:50;17.90;;;12.00;;
62413;SDS011;48453;52.322;21.058;2022-08-19T00:11:15;12.10;;;10.40;;
62413;SDS011;48453;52.322;21.058;2022-08-19T00:13:49;15.20;;;10.60;;
62413;SDS011;48453;52.322;21.058;2022-08-19T00:16:15;11.30;;;8.30;;
62413;SDS011;48453;52.322;21.058;2022-08-19T00:18:37;9.90;;;8.00;;
62413;SDS011;48453;52.322;21.058;2022-08-19T00:21:00;12.00;;;7.80;;
62413;SDS011;48453;52.322;21.058;2022-08-19T00:23:23;9.20;;;7.80;;
62413;SDS011;48453;52.322;21.058;2022-08-19T00:25:46;10.40;;;8.10;;
62413;SDS011;48453;52.322;21.058;2022-08-19T00:28:10;10.10;;;8.30;;
62413;SDS011;48453;52.322;21.058;2022-08-19T00:30:32;11.20;;;7.70;;
62413;SDS011;48453;52.322;21.058;2022-08-19T00:32:58;8.90;;;8.00;;
62413;SDS011;48453;52.322;21.058;2022-08-19T00:35:24;10.10;;;8.00;;
62413;SDS011;48453;52.322;21.058;2022-08-19T00:37:50;11.60;;;8.00;;
62413;SDS011;48453;52.322;21.058;2022-08-19T00:40:12;10.70;;;8.60;;
62413;SDS011;48453;52.322;21.058;2022-08-19T00:42:38;10.60;;;8.50;;
62413;SDS011;48453;52.322;21.058;2022-08-19T00:45:01;9.80;;;8.00;;
62413;SDS011;48453;52.322;21.058;2022-08-19T00:47:24;9.10;;;8.10;;
62413;SDS011;48453;52.322;21.058;2022-08-19T00:49:53;10.30;;;8.10;;
62413;SDS011;48453;52.322;21.058;2022-08-19T00:52:19;10.00;;;9.00;;
62413;SDS011;48453;52.322;21.058;2022-08-19T00:54:46;9.10;;;8.20;;
62413;SDS011;48453;52.322;21.058;2022-08-19T00:57:15;10.50;;;7.80;;
62413;SDS011;48453;52.322;21.058;2022-08-19T00:59:38;12.30;;;8.30;;
62413;SDS011;48453;52.322;21.058;2022-08-19T01:02:22;9.90;;;8.80;;
62413;SDS011;48453;52.322;21.058;2022-08-19T01:04:45;11.30;;;8.50;;
62413;SDS011;48453;52.322;21.058;2022-08-19T01:07:08;11.00;;;8.00;;
62413;SDS011;48453;52.322;21.058;2022-08-19T01:09:36;11.60;;;9.10;;
62413;SDS011;48453;52.322;21.058;2022-08-19T01:11:59;9.80;;;8.20;;
62413;SDS011;48453;52.322;21.058;2022-08-19T01:14:24;8.80;;;7.80;;
62413;SDS011;48453;52.322;21.058;2022-08-19T01:16:47;9.20;;;8.30;;
62413;SDS011;48453;52.322;21.058;2022-08-19T01:21:52;9.70;;;8.60;;
62413;SDS011;48453;52.322;21.058;2022-08-19T01:24:17;10.40;;;8.60;;
62413;SDS011;48453;52.322;21.058;2022-08-19T01:26:46;10.90;;;8.10;;
62413;SDS011;48453;52.322;21.058;2022-08-19T01:29:11;10.10;;;8.30;;
62413;SDS011;48453;52.322;21.058;2022-08-19T01:31:36;10.80;;;8.70;;
62413;SDS011;48453;52.322;21.058;2022-08-19T01:34:01;9.40;;;8.50;;
62413;SDS011;48453;52.322;21.058;2022-08-19T01:36:28;11.80;;;8.40;;
62413;SDS011;48453;52.322;21.058;2022-08-19T01:38:51;8.50;;;7.50;;
62413;SDS011;48453;52.322;21.058;2022-08-19T01:41:14;15.00;;;8.40;;
62413;SDS011;48453;52.322;21.058;2022-08-19T01:43:39;9.30;;;7.70;;
62413;SDS011;48453;52.322;21.058;2022-08-19T01:46:22;9.50;;;8.50;;
62413;SDS011;48453;52.322;21.058;2022-08-19T01:48:47;10.30;;;8.20;;
62413;SDS011;48453;52.322;21.058;2022-08-19T01:51:12;10.70;;;8.40;;
62413;SDS011;48453;52.322;21.058;2022-08-19T01:53:38;9.30;;;7.80;;
62413;SDS011;48453;52.322;21.058;2022-08-19T01:56:03;13.40;;;8.30;;
62413;SDS011;48453;52.322;21.058;2022-08-19T01:58:30;9.30;;;8.00;;
62413;SDS011;48453;52.322;21.058;2022-08-19T02:00:56;9.60;;;8.20;;
62413;SDS011;48453;52.322;21.058;2022-08-19T02:03:22;12.40;;;8.50;;
62413;SDS011;48453;52.322;21.058;2022-08-19T02:05:47;11.50;;;8.30;;
62413;SDS011;48453;52.322;21.058;2022-08-19T02:08:10;10.40;;;8.50;;
62413;SDS011;48453;52.322;21.058;2022-08-19T02:10:33;13.40;;;8.80;;
62413;SDS011;48453;52.322;21.058;2022-08-19T02:12:58;11.90;;;8.40;;
62413;SDS011;48453;52.322;21.058;2022-08-19T02:15:21;10.70;;;9.10;;
62413;SDS011;48453;52.322;21.058;2022-08-19T02:17:44;11.90;;;9.20;;
62413;SDS011;48453;52.322;21.058;2022-08-19T02:20:10;11.60;;;9.00;;
62413;SDS011;48453;52.322;21.058;2022-08-19T02:22:35;14.80;;;9.50;;
62413;SDS011;48453;52.322;21.058;2022-08-19T02:25:00;13.70;;;8.80;;
62413;SDS011;48453;52.322;21.058;2022-08-19T02:27:23;12.90;;;8.60;;
62413;SDS011;48453;52.322;21.058;2022-08-19T02:29:46;9.20;;;8.30;;
62413;SDS011;48453;52.322;21.058;2022-08-19T02:32:09;10.40;;;8.30;;
62413;SDS011;48453;52.322;21.058;2022-08-19T02:34:32;12.40;;;8.40;;
62413;SDS011;48453;52.322;21.058;2022-08-19T02:36:55;15.30;;;9.20;;
62413;SDS011;48453;52.322;21.058;2022-08-19T02:39:24;9.20;;;8.20;;
62413;SDS011;48453;52.322;21.058;2022-08-19T02:41:47;11.10;;;8.40;;
62413;SDS011;48453;52.322;21.058;2022-08-19T02:44:09;12.50;;;8.30;;
62413;SDS011;48453;52.322;21.058;2022-08-19T02:46:52;13.10;;;8.40;;
62413;SDS011;48453;52.322;21.058;2022-08-19T02:49:15;9.70;;;8.40;;
62413;SDS011;48453;52.322;21.058;2022-08-19T02:51:40;11.90;;;8.30;;
62413;SDS011;48453;52.322;21.058;2022-08-19T02:54:03;9.00;;;8.10;;
62413;SDS011;48453;52.322;21.058;2022-08-19T02:56:27;9.90;;;8.10;;
62413;SDS011;48453;52.322;21.058;2022-08-19T02:58:50;9.10;;;8.10;;
62413;SDS011;48453;52.322;21.058;2022-08-19T03:03:49;10.00;;;8.00;;
62413;SDS011;48453;52.322;21.058;2022-08-19T03:06:14;11.20;;;7.50;;
62413;SDS011;48453;52.322;21.058;2022-08-19T03:08:37;9.90;;;7.50;;
62413;SDS011;48453;52.322;21.058;2022-08-19T03:10:59;9.10;;;8.10;;
62413;SDS011;48453;52.322;21.058;2022-08-19T03:13:25;11.60;;;7.90;;
62413;SDS011;48453;52.322;21.058;2022-08-19T03:15:50;9.80;;;8.20;;
62413;SDS011;48453;52.322;21.058;2022-08-19T03:18:13;9.10;;;8.00;;
62413;SDS011;48453;52.322;21.058;2022-08-19T03:20:43;9.70;;;8.20;;
62413;SDS011;48453;52.322;21.058;2022-08-19T03:23:06;9.50;;;8.40;;
62413;SDS011;48453;52.322;21.058;2022-08-19T03:25:31;9.50;;;7.80;;
62413;SDS011;48453;52.322;21.058;2022-08-19T03:27:58;9.80;;;8.00;;
62413;SDS011;48453;52.322;21.058;2022-08-19T03:30:21;10.30;;;8.20;;
62413;SDS011;48453;52.322;21.058;2022-08-19T03:32:45;12.00;;;8.80;;
62413;SDS011;48453;52.322;21.058;2022-08-19T03:35:18;10.80;;;7.80;;
62413;SDS011;48453;52.322;21.058;2022-08-19T03:37:42;9.80;;;8.60;;
62413;SDS011;48453;52.322;21.058;2022-08-19T03:40:05;11.40;;;7.80;;
62413;SDS011;48453;52.322;21.058;2022-08-19T03:42:28;10.20;;;8.40;;
62413;SDS011;48453;52.322;21.058;2022-08-19T03:45:10;11.00;;;8.30;;
62413;SDS011;48453;52.322;21.058;2022-08-19T03:47:35;8.70;;;7.60;;
62413;SDS011;48453;52.322;21.058;2022-08-19T03:50:00;8.50;;;7.20;;
62413;SDS011;48453;52.322;21.058;2022-08-19T03:52:24;11.50;;;7.80;;
62413;SDS011;48453;52.322;21.058;2022-08-19T03:54:49;8.50;;;7.60;;
62413;SDS011;48453;52.322;21.058;2022-08-19T03:57:14;11.90;;;7.50;;
62413;SDS011;48453;52.322;21.058;2022-08-19T03:59:38;10.30;;;7.40;;
62413;SDS011;48453;52.322;21.058;2022-08-19T04:02:05;8.20;;;7.40;;
62413;SDS011;48453;52.322;21.058;2022-08-19T04:04:31;9.10;;;7.50;;
62413;SDS011;48453;52.322;21.058;2022-08-19T04:06:53;8.70;;;7.50;;
62413;SDS011;48453;52.322;21.058;2022-08-19T04:09:16;10.10;;;7.40;;
62413;SDS011;48453;52.322;21.058;2022-08-19T04:11:40;11.30;;;7.00;;
62413;SDS011;48453;52.322;21.058;2022-08-19T04:14:06;9.90;;;7.80;;
62413;SDS011;48453;52.322;21.058;2022-08-19T04:16:30;10.80;;;7.80;;
62413;SDS011;48453;52.322;21.058;2022-08-19T04:18:59;9.90;;;8.50;;
62413;SDS011;48453;52.322;21.058;2022-08-19T04:21:23;10.60;;;7.40;;
62413;SDS011;48453;52.322;21.058;2022-08-19T04:23:47;10.30;;;7.60;;
62413;SDS011;48453;52.322;21.058;2022-08-19T04:26:29;9.30;;;7.10;;
62413;SDS011;48453;52.322;21.058;2022-08-19T04:28:55;9.90;;;8.00;;
62413;SDS011;48453;52.322;21.058;2022-08-19T04:31:22;8.50;;;7.30;;
62413;SDS011;48453;52.322;21.058;2022-08-19T04:33:48;9.10;;;7.40;;
62413;SDS011;48453;52.322;21.058;2022-08-19T04:36:18;12.90;;;8.10;;
62413;SDS011;48453;52.322;21.058;2022-08-19T04:38:42;9.90;;;8.00;;
62413;SDS011;48453;52.322;21.058;2022-08-19T04:41:07;10.50;;;7.60;;
62413;SDS011;48453;52.322;21.058;2022-08-19T04:43:49;10.30;;;7.10;;
62413;SDS011;48453;52.322;21.058;2022-08-19T04:46:12;9.10;;;7.40;;
62413;SDS011;48453;52.322;21.058;2022-08-19T04:48:55;8.90;;;7.50;;
62413;SDS011;48453;52.322;21.058;2022-08-19T04:51:19;7.90;;;7.10;;
62413;SDS011;48453;52.322;21.058;2022-08-19T04:53:44;11.00;;;7.60;;
62413;SDS011;48453;52.322;21.058;2022-08-19T04:56:11;9.10;;;7.40;;
62413;SDS011;48453;52.322;21.058;2022-08-19T04:58:35;9.60;;;6.90;;
62413;SDS011;48453;52.322;21.058;2022-08-19T05:00:59;14.10;;;7.60;;
62413;SDS011;48453;52.322;21.058;2022-08-19T05:03:28;8.50;;;6.80;;
62413;SDS011;48453;52.322;21.058;2022-08-19T05:05:56;9.90;;;7.30;;
62413;SDS011;48453;52.322;21.058;2022-08-19T05:08:20;9.40;;;7.10;;
62413;SDS011;48453;52.322;21.058;2022-08-19T05:10:55;9.40;;;7.00;;
62413;SDS011;48453;52.322;21.058;2022-08-19T05:13:19;7.70;;;6.30;;
62413;SDS011;48453;52.322;21.058;2022-08-19T05:15:53;10.20;;;6.70;;
62413;SDS011;48453;52.322;21.058;2022-08-19T05:18:18;8.40;;;5.80;;
62413;SDS011;48453;52.322;21.058;2022-08-19T05:21:01;9.40;;;7.60;;
62413;SDS011;48453;52.322;21.058;2022-08-19T05:23:46;6.90;;;6.20;;
62413;SDS011;48453;52.322;21.058;2022-08-19T05:26:09;9.30;;;6.20;;
62413;SDS011;48453;52.322;21.058;2022-08-19T05:28:33;9.30;;;6.50;;
62413;SDS011;48453;52.322;21.058;2022-08-19T05:30:56;8.90;;;6.80;;
62413;SDS011;48453;52.322;21.058;2022-08-19T05:33:21;6.40;;;5.70;;
62413;SDS011;48453;52.322;21.058;2022-08-19T05:35:44;9.40;;;6.30;;
62413;SDS011;48453;52.322;21.058;2022-08-19T05:38:13;9.20;;;6.20;;
62413;SDS011;48453;52.322;21.058;2022-08-19T05:40:38;11.40;;;6.70;;
62413;SDS011;48453;52.322;21.058;2022-08-19T05:43:02;8.90;;;6.10;;
62413;SDS011;48453;52.322;21.058;2022-08-19T05:45:24;9.60;;;6.70;;
62413;SDS011;48453;52.322;21.058;2022-08-19T05:47:47;9.90;;;6.50;;
62413;SDS011;48453;52.322;21.058;2022-08-19T05:50:12;9.10;;;6.40;;
62413;SDS011;48453;52.322;21.058;2022-08-19T05:52:36;9.20;;;6.40;;
62413;SDS011;48453;52.322;21.058;2022-08-19T05:55:05;8.50;;;6.00;;
62413;SDS011;48453;52.322;21.058;2022-08-19T05:57:30;12.30;;;7.70;;
62413;SDS011;48453;52.322;21.058;2022-08-19T05:59:53;14.10;;;6.10;;
62413;SDS011;48453;52.322;21.058;2022-08-19T06:02:20;10.00;;;6.50;;
62413;SDS011;48453;52.322;21.058;2022-08-19T06:04:43;7.40;;;5.60;;
62413;SDS011;48453;52.322;21.058;2022-08-19T06:07:06;9.50;;;6.60;;
62413;SDS011;48453;52.322;21.058;2022-08-19T06:09:36;9.20;;;6.40;;
62413;SDS011;48453;52.322;21.058;2022-08-19T06:11:59;12.10;;;5.90;;
62413;SDS011;48453;52.322;21.058;2022-08-19T06:14:24;6.60;;;5.20;;
62413;SDS011;48453;52.322;21.058;2022-08-19T06:16:49;9.10;;;5.60;;
62413;SDS011;48453;52.322;21.058;2022-08-19T06:19:15;8.10;;;5.80;;
62413;SDS011;48453;52.322;21.058;2022-08-19T06:21:42;9.00;;;6.00;;
62413;SDS011;48453;52.322;21.058;2022-08-19T06:24:08;11.60;;;5.00;;
62413;SDS011;48453;52.322;21.058;2022-08-19T06:26:32;10.40;;;5.50;;
62413;SDS011;48453;52.322;21.058;2022-08-19T06:28:56;7.50;;;5.70;;
62413;SDS011;48453;52.322;21.058;2022-08-19T06:31:22;11.60;;;5.90;;
62413;SDS011;48453;52.322;21.058;2022-08-19T06:33:47;7.80;;;5.90;;
62413;SDS011;48453;52.322;21.058;2022-08-19T06:36:31;9.00;;;6.00;;
62413;SDS011;48453;52.322;21.058;2022-08-19T06:38:58;6.20;;;5.10;;
62413;SDS011;48453;52.322;21.058;2022-08-19T06:41:23;8.70;;;5.50;;
62413;SDS011;48453;52.322;21.058;2022-08-19T06:43:47;10.10;;;5.50;;
62413;SDS011;48453;52.322;21.058;2022-08-19T06:46:16;7.20;;;5.70;;
62413;SDS011;48453;52.322;21.058;2022-08-19T06:48:40;9.90;;;5.70;;
62413;SDS011;48453;52.322;21.058;2022-08-19T06:51:07;7.10;;;5.20;;
62413;SDS011;48453;52.322;21.058;2022-08-19T06:53:30;8.80;;;4.80;;
62413;SDS011;48453;52.322;21.058;2022-08-19T06:55:55;9.20;;;4.70;;
62413;SDS011;48453;52.322;21.058;2022-08-19T06:58:22;6.40;;;4.80;;
62413;SDS011;48453;52.322;21.058;2022-08-19T07:00:45;8.00;;;5.10;;
62413;SDS011;48453;52.322;21.058;2022-08-19T07:03:11;7.40;;;4.60;;
62413;SDS011;48453;52.322;21.058;2022-08-19T07:05:39;7.70;;;5.40;;
62413;SDS011;48453;52.322;21.058;2022-08-19T07:08:09;7.70;;;5.30;;
62413;SDS011;48453;52.322;21.058;2022-08-19T07:10:34;6.90;;;4.70;;
62413;SDS011;48453;52.322;21.058;2022-08-19T07:12:57;8.20;;;5.30;;
62413;SDS011;48453;52.322;21.058;2022-08-19T07:15:23;8.90;;;4.90;;
62413;SDS011;48453;52.322;21.058;2022-08-19T07:17:46;9.70;;;5.70;;
62413;SDS011;48453;52.322;21.058;2022-08-19T07:20:14;9.10;;;5.20;;
62413;SDS011;48453;52.322;21.058;2022-08-19T07:22:39;6.00;;;4.70;;
62413;SDS011;48453;52.322;21.058;2022-08-19T07:25:02;7.20;;;5.00;;
62413;SDS011;48453;52.322;21.058;2022-08-19T07:27:28;7.40;;;5.30;;
62413;SDS011;48453;52.322;21.058;2022-08-19T07:29:55;6.80;;;5.00;;
62413;SDS011;48453;52.322;21.058;2022-08-19T07:32:21;8.30;;;5.50;;
62413;SDS011;48453;52.322;21.058;2022-08-19T07:34:44;8.10;;;5.20;;
62413;SDS011;48453;52.322;21.058;2022-08-19T07:37:07;10.00;;;5.40;;
62413;SDS011;48453;52.322;21.058;2022-08-19T07:39:32;7.40;;;4.90;;
62413;SDS011;48453;52.322;21.058;2022-08-19T07:41:56;7.30;;;5.20;;
62413;SDS011;48453;52.322;21.058;2022-08-19T07:44:19;7.50;;;5.40;;
62413;SDS011;48453;52.322;21.058;2022-08-19T07:46:44;8.10;;;5.60;;
62413;SDS011;48453;52.322;21.058;2022-08-19T07:49:11;7.70;;;5.30;;
62413;SDS011;48453;52.322;21.058;2022-08-19T07:51:40;5.80;;;4.80;;
62413;SDS011;48453;52.322;21.058;2022-08-19T07:54:02;7.00;;;5.80;;
62413;SDS011;48453;52.322;21.058;2022-08-19T07:56:26;6.10;;;4.90;;
62413;SDS011;48453;52.322;21.058;2022-08-19T07:58:51;8.80;;;6.00;;
62413;SDS011;48453;52.322;21.058;2022-08-19T08:01:17;8.40;;;5.10;;
62413;SDS011;48453;52.322;21.058;2022-08-19T08:03:42;6.30;;;4.80;;
62413;SDS011;48453;52.322;21.058;2022-08-19T08:06:24;7.70;;;5.10;;
62413;SDS011;48453;52.322;21.058;2022-08-19T08:09:06;7.60;;;4.50;;
62413;SDS011;48453;52.322;21.058;2022-08-19T08:11:41;7.20;;;4.70;;
62413;SDS011;48453;52.322;21.058;2022-08-19T08:14:05;8.10;;;4.60;;
62413;SDS011;48453;52.322;21.058;2022-08-19T08:16:48;6.60;;;5.10;;
62413;SDS011;48453;52.322;21.058;2022-08-19T08:19:13;8.40;;;4.50;;
62413;SDS011;48453;52.322;21.058;2022-08-19T08:21:47;7.40;;;5.00;;
62413;SDS011;48453;52.322;21.058;2022-08-19T08:24:10;6.80;;;5.20;;
62413;SDS011;48453;52.322;21.058;2022-08-19T08:26:35;6.20;;;4.50;;
62413;SDS011;48453;52.322;21.058;2022-08-19T08:28:59;7.80;;;4.80;;
62413;SDS011;48453;52.322;21.058;2022-08-19T08:31:21;7.70;;;5.50;;
62413;SDS011;48453;52.322;21.058;2022-08-19T08:33:46;9.50;;;4.70;;
62413;SDS011;48453;52.322;21.058;2022-08-19T08:36:09;8.50;;;4.70;;
62413;SDS011;48453;52.322;21.058;2022-08-19T08:38:38;10.80;;;5.00;;
62413;SDS011;48453;52.322;21.058;2022-08-19T08:41:06;6.70;;;5.30;;
62413;SDS011;48453;52.322;21.058;2022-08-19T08:51:15;8.30;;;5.60;;
62413;SDS011;48453;52.322;21.058;2022-08-19T08:53:44;8.40;;;5.40;;
62413;SDS011;48453;52.322;21.058;2022-08-19T08:56:10;10.30;;;5.80;;
62413;SDS011;48453;52.322;21.058;2022-08-19T08:59:28;8.90;;;5.10;;
62413;SDS011;48453;52.322;21.058;2022-08-19T09:01:26;8.30;;;5.10;;
62413;SDS011;48453;52.322;21.058;2022-08-19T09:03:52;7.20;;;5.20;;
62413;SDS011;48453;52.322;21.058;2022-08-19T09:14:16;7.20;;;5.00;;
62413;SDS011;48453;52.322;21.058;2022-08-19T09:17:00;5.70;;;4.50;;
62413;SDS011;48453;52.322;21.058;2022-08-19T09:19:25;6.90;;;5.30;;
62413;SDS011;48453;52.322;21.058;2022-08-19T09:21:50;6.20;;;4.60;;
62413;SDS011;48453;52.322;21.058;2022-08-19T09:24:13;6.30;;;4.90;;
62413;SDS011;48453;52.322;21.058;2022-08-19T09:26:38;7.40;;;5.30;;
62413;SDS011;48453;52.322;21.058;2022-08-19T09:29:15;7.50;;;5.00;;
62413;SDS011;48453;52.322;21.058;2022-08-19T09:31:40;8.20;;;4.80;;
62413;SDS011;48453;52.322;21.058;2022-08-19T09:34:03;6.20;;;4.40;;
62413;SDS011;48453;52.322;21.058;2022-08-19T09:36:27;6.90;;;5.00;;
62413;SDS011;48453;52.322;21.058;2022-08-19T09:38:57;8.80;;;5.00;;
62413;SDS011;48453;52.322;21.058;2022-08-19T09:41:25;6.50;;;4.50;;
62413;SDS011;48453;52.322;21.058;2022-08-19T09:43:51;9.00;;;4.70;;
62413;SDS011;48453;52.322;21.058;2022-08-19T09:46:18;7.70;;;4.90;;
62413;SDS011;48453;52.322;21.058;2022-08-19T09:48:45;8.40;;;5.20;;
62413;SDS011;48453;52.322;21.058;2022-08-19T09:51:11;7.10;;;5.10;;
62413;SDS011;48453;52.322;21.058;2022-08-19T09:53:40;7.20;;;5.10;;
62413;SDS011;48453;52.322;21.058;2022-08-19T09:56:06;12.90;;;5.00;;
62413;SDS011;48453;52.322;21.058;2022-08-19T09:58:34;11.20;;;5.50;;
62413;SDS011;48453;52.322;21.058;2022-08-19T10:00:57;7.80;;;5.30;;
62413;SDS011;48453;52.322;21.058;2022-08-19T10:03:22;7.90;;;4.60;;
62413;SDS011;48453;52.322;21.058;2022-08-19T10:05:52;5.50;;;4.40;;
62413;SDS011;48453;52.322;21.058;2022-08-19T10:08:21;6.20;;;4.50;;
62413;SDS011;48453;52.322;21.058;2022-08-19T10:10:48;5.80;;;4.70;;
62413;SDS011;48453;52.322;21.058;2022-08-19T10:13:13;6.70;;;4.60;;
62413;SDS011;48453;52.322;21.058;2022-08-19T10:15:37;6.80;;;5.00;;
62413;SDS011;48453;52.322;21.058;2022-08-19T10:18:09;6.40;;;4.90;;
62413;SDS011;48453;52.322;21.058;2022-08-19T10:20:33;8.50;;;5.40;;
62413;SDS011;48453;52.322;21.058;2022-08-19T10:22:59;6.70;;;5.00;;
62413;SDS011;48453;52.322;21.058;2022-08-19T10:25:23;7.20;;;4.60;;
62413;SDS011;48453;52.322;21.058;2022-08-19T10:27:48;9.60;;;5.30;;
62413;SDS011;48453;52.322;21.058;2022-08-19T10:30:13;5.70;;;4.60;;
62413;SDS011;48453;52.322;21.058;2022-08-19T10:32:35;5.90;;;4.20;;
62413;SDS011;48453;52.322;21.058;2022-08-19T10:34:58;8.30;;;4.50;;
62413;SDS011;48453;52.322;21.058;2022-08-19T10:37:21;8.00;;;5.10;;
62413;SDS011;48453;52.322;21.058;2022-08-19T10:39:52;8.60;;;5.00;;
62413;SDS011;48453;52.322;21.058;2022-08-19T10:42:15;6.00;;;4.50;;
62413;SDS011;48453;52.322;21.058;2022-08-19T10:44:40;10.20;;;5.30;;
62413;SDS011;48453;52.322;21.058;2022-08-19T10:47:03;7.70;;;4.70;;
62413;SDS011;48453;52.322;21.058;2022-08-19T10:49:41;6.00;;;4.50;;
62413;SDS011;48453;52.322;21.058;2022-08-19T10:52:23;8.80;;;4.80;;
62413;SDS011;48453;52.322;21.058;2022-08-19T10:55:01;8.60;;;5.20;;
62413;SDS011;48453;52.322;21.058;2022-08-19T10:57:45;5.00;;;4.10;;
62413;SDS011;48453;52.322;21.058;2022-08-19T11:00:27;9.90;;;4.20;;
62413;SDS011;48453;52.322;21.058;2022-08-19T11:02:53;7.60;;;4.80;;
62413;SDS011;48453;52.322;21.058;2022-08-19T11:05:16;8.80;;;5.20;;
62413;SDS011;48453;52.322;21.058;2022-08-19T11:07:43;5.50;;;4.20;;
62413;SDS011;48453;52.322;21.058;2022-08-19T11:10:10;7.00;;;4.10;;
62413;SDS011;48453;52.322;21.058;2022-08-19T11:12:36;5.30;;;4.10;;
62413;SDS011;48453;52.322;21.058;2022-08-19T11:14:59;8.80;;;4.60;;
62413;SDS011;48453;52.322;21.058;2022-08-19T11:17:22;7.60;;;4.20;;
62413;SDS011;48453;52.322;21.058;2022-08-19T11:19:45;9.50;;;4.70;;
62413;SDS011;48453;52.322;21.058;2022-08-19T11:22:11;6.30;;;4.90;;
62413;SDS011;48453;52.322;21.058;2022-08-19T11:24:40;6.50;;;4.50;;
62413;SDS011;48453;52.322;21.058;2022-08-19T11:27:04;10.30;;;4.30;;
62413;SDS011;48453;52.322;21.058;2022-08-19T11:29:27;6.10;;;4.10;;
62413;SDS011;48453;52.322;21.058;2022-08-19T11:31:51;5.40;;;3.60;;
62413;SDS011;48453;52.322;21.058;2022-08-19T11:34:18;5.60;;;3.90;;
62413;SDS011;48453;52.322;21.058;2022-08-19T11:36:43;5.60;;;4.40;;
62413;SDS011;48453;52.322;21.058;2022-08-19T11:39:07;5.70;;;3.70;;
62413;SDS011;48453;52.322;21.058;2022-08-19T11:41:31;8.60;;;4.50;;
62413;SDS011;48453;52.322;21.058;2022-08-19T11:43:56;6.60;;;4.30;;
62413;SDS011;48453;52.322;21.058;2022-08-19T11:46:22;7.40;;;3.90;;
62413;SDS011;48453;52.322;21.058;2022-08-19T11:48:46;8.30;;;4.30;;
62413;SDS011;48453;52.322;21.058;2022-08-19T11:51:09;6.80;;;4.40;;
62413;SDS011;48453;52.322;21.058;2022-08-19T11:53:35;8.80;;;4.40;;
62413;SDS011;48453;52.322;21.058;2022-08-19T11:55:58;5.90;;;4.00;;
62413;SDS011;48453;52.322;21.058;2022-08-19T11:58:21;7.40;;;4.10;;
62413;SDS011;48453;52.322;21.058;2022-08-19T12:00:44;7.70;;;4.00;;
62413;SDS011;48453;52.322;21.058;2022-08-19T12:03:10;9.00;;;4.60;;
62413;SDS011;48453;52.322;21.058;2022-08-19T12:05:33;7.50;;;4.40;;
62413;SDS011;48453;52.322;21.058;2022-08-19T12:07:56;9.60;;;4.50;;
62413;SDS011;48453;52.322;21.058;2022-08-19T12:10:19;8.10;;;4.10;;
62413;SDS011;48453;52.322;21.058;2022-08-19T12:12:50;5.30;;;3.90;;
62413;SDS011;48453;52.322;21.058;2022-08-19T12:15:20;6.70;;;4.40;;
62413;SDS011;48453;52.322;21.058;2022-08-19T12:17:43;5.10;;;3.60;;
62413;SDS011;48453;52.322;21.058;2022-08-19T12:20:06;7.10;;;4.00;;
62413;SDS011;48453;52.322;21.058;2022-08-19T12:22:30;7.60;;;4.40;;
62413;SDS011;48453;52.322;21.058;2022-08-19T12:24:55;8.00;;;4.10;;
62413;SDS011;48453;52.322;21.058;2022-08-19T12:27:20;5.50;;;3.70;;
62413;SDS011;48453;52.322;21.058;2022-08-19T12:30:02;7.90;;;4.70;;
62413;SDS011;48453;52.322;21.058;2022-08-19T12:32:27;5.70;;;3.90;;
62413;SDS011;48453;52.322;21.058;2022-08-19T12:34:50;5.80;;;3.80;;
62413;SDS011;48453;52.322;21.058;2022-08-19T12:37:13;5.40;;;3.40;;
62413;SDS011;48453;52.322;21.058;2022-08-19T12:39:39;6.30;;;3.90;;
62413;SDS011;48453;52.322;21.058;2022-08-19T12:42:05;8.20;;;4.10;;
62413;SDS011;48453;52.322;21.058;2022-08-19T12:44:28;7.00;;;4.20;;
62413;SDS011;48453;52.322;21.058;2022-08-19T12:46:55;6.80;;;4.20;;
62413;SDS011;48453;52.322;21.058;2022-08-19T12:49:17;5.20;;;3.70;;
62413;SDS011;48453;52.322;21.058;2022-08-19T12:52:00;5.60;;;3.60;;
62413;SDS011;48453;52.322;21.058;2022-08-19T12:54:23;5.80;;;3.60;;
62413;SDS011;48453;52.322;21.058;2022-08-19T12:56:49;10.20;;;4.20;;
62413;SDS011;48453;52.322;21.058;2022-08-19T12:59:14;7.20;;;4.30;;
62413;SDS011;48453;52.322;21.058;2022-08-19T13:01:41;6.40;;;3.70;;
62413;SDS011;48453;52.322;21.058;2022-08-19T13:04:07;9.10;;;3.80;;
62413;SDS011;48453;52.322;21.058;2022-08-19T13:06:35;6.40;;;3.60;;
62413;SDS011;48453;52.322;21.058;2022-08-19T13:08:58;6.20;;;3.80;;
62413;SDS011;48453;52.322;21.058;2022-08-19T13:11:22;5.10;;;3.60;;
62413;SDS011;48453;52.322;21.058;2022-08-19T13:13:47;7.30;;;3.70;;
62413;SDS011;48453;52.322;21.058;2022-08-19T13:16:13;6.60;;;3.70;;
62413;SDS011;48453;52.322;21.058;2022-08-19T13:18:36;5.50;;;3.40;;
62413;SDS011;48453;52.322;21.058;2022-08-19T13:21:03;5.50;;;4.00;;
62413;SDS011;48453;52.322;21.058;2022-08-19T13:23:26;5.80;;;3.70;;
62413;SDS011;48453;52.322;21.058;2022-08-19T13:26:06;6.70;;;3.50;;
62413;SDS011;48453;52.322;21.058;2022-08-19T13:28:29;6.30;;;3.50;;
62413;SDS011;48453;52.322;21.058;2022-08-19T13:31:13;6.80;;;3.60;;
62413;SDS011;48453;52.322;21.058;2022-08-19T13:33:55;6.20;;;3.70;;
62413;SDS011;48453;52.322;21.058;2022-08-19T13:36:18;5.00;;;3.70;;
62413;SDS011;48453;52.322;21.058;2022-08-19T13:38:41;6.80;;;4.10;;
62413;SDS011;48453;52.322;21.058;2022-08-19T13:41:04;7.00;;;3.80;;
62413;SDS011;48453;52.322;21.058;2022-08-19T13:43:34;6.20;;;3.60;;
62413;SDS011;48453;52.322;21.058;2022-08-19T13:45:57;6.40;;;3.90;;
62413;SDS011;48453;52.322;21.058;2022-08-19T13:48:23;6.50;;;3.70;;
62413;SDS011;48453;52.322;21.058;2022-08-19T13:50:51;8.10;;;3.60;;
62413;SDS011;48453;52.322;21.058;2022-08-19T13:53:16;6.10;;;3.20;;
62413;SDS011;48453;52.322;21.058;2022-08-19T13:55:41;6.50;;;3.40;;
62413;SDS011;48453;52.322;21.058;2022-08-19T13:58:04;7.30;;;3.40;;
62413;SDS011;48453;52.322;21.058;2022-08-19T14:00:29;5.10;;;3.60;;
62413;SDS011;48453;52.322;21.058;2022-08-19T14:02:53;6.00;;;3.30;;
62413;SDS011;48453;52.322;21.058;2022-08-19T14:05:23;8.90;;;3.70;;
62413;SDS011;48453;52.322;21.058;2022-08-19T14:07:48;6.50;;;3.70;;
62413;SDS011;48453;52.322;21.058;2022-08-19T14:10:12;8.20;;;3.40;;
62413;SDS011;48453;52.322;21.058;2022-08-19T14:12:35;6.40;;;3.20;;
62413;SDS011;48453;52.322;21.058;2022-08-19T14:14:58;6.40;;;3.80;;
62413;SDS011;48453;52.322;21.058;2022-08-19T14:17:23;6.00;;;3.20;;
62413;SDS011;48453;52.322;21.058;2022-08-19T14:19:50;8.00;;;3.50;;
62413;SDS011;48453;52.322;21.058;2022-08-19T14:22:18;7.30;;;3.50;;
62413;SDS011;48453;52.322;21.058;2022-08-19T14:24:43;5.70;;;3.80;;
62413;SDS011;48453;52.322;21.058;2022-08-19T14:27:10;6.80;;;3.20;;
62413;SDS011;48453;52.322;21.058;2022-08-19T14:29:33;5.10;;;3.40;;
62413;SDS011;48453;52.322;21.058;2022-08-19T14:31:58;9.40;;;3.50;;
62413;SDS011;48453;52.322;21.058;2022-08-19T14:34:21;9.70;;;4.50;;
62413;SDS011;48453;52.322;21.058;2022-08-19T14:36:44;8.80;;;4.60;;
62413;SDS011;48453;52.322;21.058;2022-08-19T14:39:11;5.90;;;3.10;;
62413;SDS011;48453;52.322;21.058;2022-08-19T14:41:36;8.00;;;3.50;;
62413;SDS011;48453;52.322;21.058;2022-08-19T14:43:58;10.30;;;3.60;;
62413;SDS011;48453;52.322;21.058;2022-08-19T14:46:23;7.10;;;3.70;;